Terminal Aerodrome Forecast
Issued by NWS

Home | Current Version | Previous Version | Text Only | Print | Product List | Glossary On
Versions: 1 2 3 4 5 6 7 8 9 10 11 12 13 14 15
000
FTUS41 KPHI 042321
TAFPNE
TAF
KPNE 042321Z 0500/0524 29008KT P6SM SCT070
     FM050200 26004KT P6SM VCSH SCT040 BKN070
     FM050600 30004KT P6SM SCT250
     FM051300 30010KT P6SM SCT250
     FM051600 28010G18KT P6SM SCT050
     FM052300 31008KT P6SM SCT250=

USA.gov is the U.S. government's official web portal to all federal, state and local government web resources and services.